createdAt,value
2023-01-19T00:00:54.994Z,10.50
2023-01-19T00:03:22.281Z,10.57
2023-01-19T00:05:50.187Z,16.95
2023-01-19T00:08:17.728Z,13.23
2023-01-19T00:10:46.901Z,9.80
2023-01-19T00:13:14.696Z,6.65
2023-01-19T00:15:42.045Z,7.72
2023-01-19T00:18:10.881Z,18.13
2023-01-19T00:20:38.498Z,12.80
2023-01-19T00:23:07.690Z,14.35
2023-01-19T00:25:35.012Z,12.13
2023-01-19T00:28:02.253Z,10.65
2023-01-19T00:30:29.519Z,10.10
2023-01-19T00:32:56.940Z,7.50
2023-01-19T00:35:24.277Z,14.50
2023-01-19T00:37:51.549Z,10.93
2023-01-19T00:40:18.998Z,7.78
2023-01-19T00:42:48.430Z,7.72
2023-01-19T00:45:18.797Z,9.10
2023-01-19T00:47:46.622Z,10.23
2023-01-19T00:50:17.577Z,6.22
2023-01-19T00:52:45.518Z,6.32
2023-01-19T00:55:14.047Z,5.75
2023-01-19T00:57:41.541Z,9.38
2023-01-19T01:00:11.686Z,7.30
2023-01-19T01:02:39.996Z,6.72
2023-01-19T01:05:07.434Z,5.60
2023-01-19T01:07:44.527Z,9.95
2023-01-19T01:10:13.419Z,9.52
2023-01-19T01:12:41.326Z,5.70
2023-01-19T01:15:23.092Z,6.05
2023-01-19T01:17:53.208Z,7.95
2023-01-19T01:20:22.255Z,9.73
2023-01-19T01:22:50.975Z,9.48
2023-01-19T01:25:19.227Z,7.78
2023-01-19T01:27:46.406Z,9.85
2023-01-19T01:30:15.335Z,4.85
2023-01-19T01:32:42.845Z,5.05
2023-01-19T01:35:10.144Z,7.20
2023-01-19T01:37:38.043Z,6.13
2023-01-19T01:40:06.552Z,9.73
2023-01-19T01:42:34.768Z,9.32
2023-01-19T01:45:03.235Z,7.95
2023-01-19T01:47:37.324Z,6.68
2023-01-19T01:50:13.739Z,7.70
2023-01-19T01:53:06.422Z,5.50
2023-01-19T01:55:37.664Z,8.13
2023-01-19T01:58:05.666Z,5.65
2023-01-19T02:00:53.082Z,8.38
2023-01-19T02:03:20.905Z,7.60
2023-01-19T02:05:48.101Z,7.50
2023-01-19T02:08:55.271Z,5.93
2023-01-19T02:11:41.626Z,6.10
2023-01-19T02:14:08.801Z,5.80
2023-01-19T02:16:37.142Z,7.50
2023-01-19T02:19:05.436Z,10.80
2023-01-19T02:21:36.746Z,6.22
2023-01-19T02:24:04.239Z,10.50
2023-01-19T02:26:36.009Z,5.40
2023-01-19T02:29:04.894Z,7.03
2023-01-19T02:31:33.352Z,6.03
2023-01-19T02:34:01.264Z,7.53
2023-01-19T02:36:48.700Z,5.68
2023-01-19T02:39:16.414Z,12.10
2023-01-19T02:41:47.356Z,6.75
2023-01-19T02:44:15.350Z,4.30
2023-01-19T02:46:42.523Z,7.70
2023-01-19T02:49:09.763Z,7.05
2023-01-19T02:51:36.885Z,7.18
2023-01-19T02:54:06.947Z,6.40
2023-01-19T02:56:53.802Z,11.80
2023-01-19T02:59:37.351Z,10.88
2023-01-19T03:02:23.339Z,13.30
2023-01-19T03:05:05.166Z,13.75
2023-01-19T03:07:39.098Z,16.00
2023-01-19T03:10:09.176Z,18.90
2023-01-19T03:12:41.547Z,20.98
2023-01-19T03:15:18.788Z,19.33
2023-01-19T03:17:48.374Z,10.75
2023-01-19T03:20:18.884Z,9.30
2023-01-19T03:22:46.544Z,15.18
2023-01-19T03:25:15.299Z,15.80
2023-01-19T03:27:43.894Z,9.60
2023-01-19T03:30:18.522Z,14.68
2023-01-19T03:32:49.267Z,9.30
2023-01-19T03:35:18.811Z,13.45
2023-01-19T03:37:47.983Z,10.45
2023-01-19T03:40:15.418Z,8.82
2023-01-19T03:42:43.277Z,8.00
2023-01-19T03:45:12.091Z,11.38
2023-01-19T03:47:39.527Z,9.70
2023-01-19T03:50:09.606Z,7.25
2023-01-19T03:52:36.792Z,12.93
2023-01-19T03:55:05.730Z,11.20
2023-01-19T03:57:33.079Z,10.50
2023-01-19T04:00:00.272Z,9.88
2023-01-19T04:02:27.584Z,13.15
2023-01-19T04:04:54.778Z,8.73
2023-01-19T04:07:21.885Z,10.48
2023-01-19T04:09:49.009Z,10.13
2023-01-19T04:12:16.263Z,9.27
2023-01-19T04:14:43.386Z,11.32
2023-01-19T04:17:10.593Z,9.02
2023-01-19T04:19:37.802Z,8.07
2023-01-19T04:22:04.949Z,7.35
2023-01-19T04:24:32.190Z,7.55
2023-01-19T04:26:59.489Z,11.50
2023-01-19T04:29:26.644Z,9.52
2023-01-19T04:31:53.789Z,11.63
2023-01-19T04:34:20.980Z,17.45
2023-01-19T04:36:51.073Z,13.07
2023-01-19T04:39:18.237Z,57.17
2023-01-19T04:41:45.452Z,16.33
2023-01-19T04:44:12.651Z,12.77
2023-01-19T04:46:39.995Z,9.43
2023-01-19T04:49:07.279Z,10.93
2023-01-19T04:51:34.673Z,12.60
2023-01-19T04:54:02.390Z,10.38
2023-01-19T04:56:29.739Z,13.05
2023-01-19T04:58:56.931Z,12.70
2023-01-19T05:01:24.825Z,14.80
2023-01-19T05:03:52.145Z,15.10
2023-01-19T05:06:19.369Z,16.35
2023-01-19T05:08:46.581Z,20.80
2023-01-19T05:11:13.932Z,13.15
2023-01-19T05:13:41.155Z,9.25
2023-01-19T05:16:08.670Z,17.20
2023-01-19T05:18:36.002Z,13.88
2023-01-19T05:21:09.948Z,13.48
2023-01-19T05:23:37.179Z,43.22
2023-01-19T05:26:04.400Z,21.25
2023-01-19T05:28:32.389Z,42.03
2023-01-19T05:30:59.718Z,45.38
2023-01-19T05:33:27.825Z,31.52
2023-01-19T05:35:55.225Z,32.30
2023-01-19T05:38:34.066Z,23.30
2023-01-19T05:41:02.474Z,19.75
2023-01-19T05:43:29.727Z,19.52
2023-01-19T05:45:59.227Z,13.60
2023-01-19T05:48:26.524Z,19.52
2023-01-19T05:50:57.521Z,29.83
2023-01-19T05:53:24.731Z,40.90
2023-01-19T05:55:51.873Z,31.42
2023-01-19T05:58:19.182Z,32.83
2023-01-19T06:00:46.419Z,38.25
2023-01-19T06:03:13.656Z,41.72
2023-01-19T06:05:40.889Z,42.10
2023-01-19T06:08:08.241Z,53.67
2023-01-19T06:10:35.421Z,65.30
2023-01-19T06:13:03.126Z,96.93
2023-01-19T06:15:30.505Z,65.53
2023-01-19T06:17:57.691Z,71.97
2023-01-19T06:20:24.845Z,79.47
2023-01-19T06:22:52.609Z,80.47
2023-01-19T06:25:19.762Z,86.38
2023-01-19T06:27:46.967Z,86.80
2023-01-19T06:30:14.527Z,83.20
2023-01-19T06:32:42.314Z,82.53
2023-01-19T06:35:09.793Z,74.03
2023-01-19T06:37:37.856Z,67.35
2023-01-19T06:40:05.382Z,64.13
2023-01-19T06:42:32.579Z,40.08
2023-01-19T06:44:59.992Z,47.20
2023-01-19T06:47:27.181Z,45.90
2023-01-19T06:49:54.417Z,42.47
2023-01-19T06:52:21.643Z,35.88
2023-01-19T06:54:48.814Z,36.63
2023-01-19T06:57:17.277Z,54.15
2023-01-19T06:59:44.570Z,53.50
2023-01-19T07:02:26.279Z,35.58
2023-01-19T07:04:55.862Z,33.20
2023-01-19T07:07:23.085Z,35.88
2023-01-19T07:09:50.257Z,21.17
2023-01-19T07:12:21.166Z,45.78
2023-01-19T07:14:49.481Z,52.78
2023-01-19T07:17:16.817Z,32.75
2023-01-19T07:19:43.948Z,47.17
2023-01-19T07:22:11.092Z,47.83
2023-01-19T07:24:38.413Z,53.22
2023-01-19T07:27:05.869Z,55.88
2023-01-19T07:29:33.094Z,45.05
2023-01-19T07:32:00.657Z,41.88
2023-01-19T07:34:28.128Z,37.47
2023-01-19T07:36:56.401Z,33.03
2023-01-19T07:39:23.645Z,30.38
2023-01-19T07:41:50.853Z,27.80
2023-01-19T07:44:18.056Z,27.20
2023-01-19T07:46:45.316Z,28.00
2023-01-19T07:49:13.294Z,27.27
2023-01-19T07:51:40.488Z,21.85
2023-01-19T07:54:08.618Z,22.95
2023-01-19T07:56:35.895Z,22.05
2023-01-19T07:59:03.358Z,20.92
2023-01-19T08:01:31.601Z,21.73
2023-01-19T08:03:58.975Z,23.10
2023-01-19T08:06:32.737Z,22.98
2023-01-19T08:09:00.188Z,20.02
2023-01-19T08:11:27.311Z,20.67
2023-01-19T08:13:54.562Z,25.35
2023-01-19T08:16:21.811Z,21.33
2023-01-19T08:18:49.039Z,18.90
2023-01-19T08:21:16.580Z,29.23
2023-01-19T08:23:43.785Z,21.17
2023-01-19T08:26:23.885Z,27.48
2023-01-19T08:28:51.055Z,16.40
2023-01-19T08:31:21.866Z,21.63
2023-01-19T08:33:51.231Z,16.38
2023-01-19T08:36:18.479Z,18.40
2023-01-19T08:38:46.332Z,17.95
2023-01-19T08:41:13.963Z,17.70
2023-01-19T08:43:41.250Z,14.10
2023-01-19T08:46:08.538Z,13.98
2023-01-19T08:48:37.756Z,17.38
2023-01-19T08:51:05.863Z,15.85
2023-01-19T08:53:33.059Z,16.60
2023-01-19T08:56:01.314Z,14.10
2023-01-19T08:58:28.841Z,12.52
2023-01-19T09:00:56.243Z,12.02
2023-01-19T09:03:23.730Z,12.43
2023-01-19T09:05:51.077Z,14.50
2023-01-19T09:08:19.190Z,14.07
2023-01-19T09:10:47.630Z,13.38
2023-01-19T09:13:15.144Z,11.52
2023-01-19T09:15:43.398Z,12.80
2023-01-19T09:18:13.593Z,10.25
2023-01-19T09:20:43.667Z,11.02
2023-01-19T09:23:12.110Z,9.60
2023-01-19T09:25:40.105Z,11.65
2023-01-19T09:28:09.234Z,14.52
2023-01-19T09:30:37.489Z,11.50
2023-01-19T09:33:11.070Z,10.18
2023-01-19T09:35:39.381Z,11.55
2023-01-19T09:38:07.541Z,12.00
2023-01-19T09:40:36.398Z,12.73
2023-01-19T09:43:13.120Z,11.68
2023-01-19T09:45:46.529Z,15.32
2023-01-19T09:48:22.822Z,16.83
2023-01-19T09:50:50.340Z,12.85
2023-01-19T09:53:21.398Z,14.65
2023-01-19T09:55:50.023Z,10.60
2023-01-19T09:58:19.307Z,11.70
2023-01-19T10:00:48.924Z,12.27
2023-01-19T10:03:16.823Z,13.60
2023-01-19T10:05:46.973Z,14.02
2023-01-19T10:08:24.707Z,14.80
2023-01-19T10:10:56.121Z,9.65
2023-01-19T10:13:30.790Z,10.68
2023-01-19T10:16:16.711Z,9.82
2023-01-19T10:18:48.461Z,12.98
2023-01-19T10:21:18.414Z,15.30
2023-01-19T10:23:54.357Z,10.65
2023-01-19T10:26:52.604Z,10.18
2023-01-19T10:29:23.076Z,10.93
2023-01-19T10:31:52.618Z,10.25
2023-01-19T10:34:23.223Z,8.27
2023-01-19T10:36:51.364Z,9.60
2023-01-19T10:39:19.415Z,8.45
2023-01-19T10:41:56.611Z,10.82
2023-01-19T10:44:30.871Z,9.40
2023-01-19T10:46:59.821Z,9.60
2023-01-19T10:49:47.671Z,11.95
2023-01-19T10:52:29.282Z,8.13
2023-01-19T10:54:56.806Z,7.50
2023-01-19T10:57:27.208Z,5.68
2023-01-19T10:59:54.446Z,7.88
2023-01-19T11:02:29.739Z,5.80
2023-01-19T11:05:01.436Z,6.75
2023-01-19T11:07:33.422Z,6.50
2023-01-19T11:10:20.873Z,6.88
2023-01-19T11:13:15.848Z,4.82
2023-01-19T11:15:46.189Z,7.38
2023-01-19T11:18:24.159Z,10.55
2023-01-19T11:20:52.915Z,6.07
2023-01-19T11:23:33.991Z,33.13
2023-01-19T11:26:02.308Z,4.63
2023-01-19T11:28:29.569Z,10.55
2023-01-19T11:30:56.786Z,8.63
2023-01-19T11:33:44.298Z,6.72
2023-01-19T11:36:16.890Z,5.45
2023-01-19T11:38:45.151Z,7.40
2023-01-19T11:41:22.488Z,6.45
2023-01-19T11:43:52.163Z,10.95
2023-01-19T11:46:19.791Z,7.88
2023-01-19T11:48:57.303Z,6.72
2023-01-19T11:51:25.893Z,7.38
2023-01-19T11:53:54.105Z,5.60
2023-01-19T11:56:24.284Z,7.90
2023-01-19T11:58:51.549Z,10.13
2023-01-19T12:01:21.105Z,6.40
2023-01-19T12:04:00.139Z,6.53
2023-01-19T12:06:31.214Z,9.13
2023-01-19T12:09:02.482Z,6.57
2023-01-19T12:11:38.466Z,7.20
2023-01-19T12:14:07.569Z,9.20
2023-01-19T12:16:35.331Z,8.52
2023-01-19T12:19:05.848Z,7.47
2023-01-19T12:21:32.995Z,8.73
2023-01-19T12:24:16.409Z,8.93
2023-01-19T12:26:55.287Z,7.43
2023-01-19T12:29:24.662Z,6.68
2023-01-19T12:32:10.783Z,6.38
2023-01-19T12:34:45.234Z,8.55
2023-01-19T12:37:31.384Z,7.28
2023-01-19T12:40:01.411Z,8.30
2023-01-19T12:42:29.365Z,8.60
2023-01-19T12:45:05.519Z,9.85
2023-01-19T12:47:32.833Z,9.93
2023-01-19T12:50:07.009Z,8.85
2023-01-19T12:52:41.176Z,10.05
2023-01-19T12:55:14.451Z,10.00
2023-01-19T13:00:30.659Z,12.07
2023-01-19T13:03:00.899Z,9.40
2023-01-19T13:05:32.889Z,11.15
2023-01-19T13:08:04.947Z,9.67
2023-01-19T13:10:50.837Z,10.07
2023-01-19T13:13:21.084Z,13.02
2023-01-19T13:15:48.293Z,11.32
2023-01-19T13:18:25.476Z,12.07
2023-01-19T13:21:11.387Z,12.30
2023-01-19T13:23:50.488Z,10.60
2023-01-19T13:26:19.809Z,11.00
2023-01-19T13:28:51.571Z,9.20
2023-01-19T13:31:19.074Z,14.23
2023-01-19T13:33:46.271Z,12.95
2023-01-19T13:36:17.929Z,9.40
2023-01-19T13:38:45.110Z,7.95
2023-01-19T13:41:15.779Z,11.82
2023-01-19T13:43:43.619Z,9.95
2023-01-19T13:46:12.307Z,8.45
2023-01-19T13:48:39.721Z,12.05
2023-01-19T13:51:08.653Z,7.13
2023-01-19T13:53:36.587Z,11.82
2023-01-19T13:56:08.283Z,12.18
2023-01-19T13:58:35.555Z,10.35
2023-01-19T14:01:02.822Z,10.57
2023-01-19T14:03:30.124Z,8.35
2023-01-19T14:05:57.634Z,9.48
2023-01-19T14:08:25.808Z,7.68
2023-01-19T14:10:52.988Z,8.75
2023-01-19T14:13:29.499Z,11.57
2023-01-19T14:15:57.798Z,7.47
2023-01-19T14:18:27.073Z,7.63
2023-01-19T14:20:54.300Z,8.48
2023-01-19T14:23:57.904Z,7.63
2023-01-19T14:26:42.354Z,7.18
2023-01-19T14:29:27.917Z,8.73
2023-01-19T14:32:01.219Z,11.85
2023-01-19T14:36:56.016Z,10.60
2023-01-19T14:39:24.972Z,7.25
2023-01-19T14:41:53.185Z,6.95
2023-01-19T14:44:26.909Z,6.82
2023-01-19T14:46:54.599Z,7.80
2023-01-19T14:49:33.445Z,8.65
2023-01-19T14:52:02.103Z,7.13
2023-01-19T14:54:31.852Z,6.95
2023-01-19T14:56:59.020Z,9.15
2023-01-19T14:59:26.297Z,6.53
2023-01-19T15:01:53.826Z,11.55
2023-01-19T15:04:21.067Z,6.38
2023-01-19T15:06:48.479Z,7.50
2023-01-19T15:09:16.480Z,7.47
2023-01-19T15:11:45.043Z,9.20
2023-01-19T15:14:16.161Z,6.00
2023-01-19T15:16:43.748Z,9.82
2023-01-19T15:19:12.036Z,7.72
2023-01-19T15:21:42.172Z,10.70
2023-01-19T15:24:10.619Z,6.30
2023-01-19T15:26:42.707Z,9.30
2023-01-19T15:29:24.289Z,6.90
2023-01-19T15:31:52.137Z,8.52
2023-01-19T15:34:19.399Z,6.63
2023-01-19T15:36:46.572Z,8.68
2023-01-19T15:39:13.835Z,6.93
2023-01-19T15:41:41.068Z,6.47
2023-01-19T15:44:09.310Z,7.55
2023-01-19T15:46:36.501Z,5.97
2023-01-19T15:49:05.667Z,6.22
2023-01-19T15:51:33.472Z,5.72
2023-01-19T15:54:00.841Z,5.97
2023-01-19T15:56:31.867Z,5.28
2023-01-19T15:58:59.652Z,7.10
2023-01-19T16:01:31.540Z,7.30
2023-01-19T16:04:00.607Z,6.50
2023-01-19T16:06:27.943Z,6.40
2023-01-19T16:08:59.941Z,6.07
2023-01-19T16:11:27.850Z,5.45
2023-01-19T16:13:55.072Z,5.53
2023-01-19T16:16:23.624Z,6.57
2023-01-19T16:18:51.075Z,7.13
2023-01-19T16:21:18.293Z,8.50
2023-01-19T16:23:45.460Z,10.13
2023-01-19T16:26:33.972Z,9.70
2023-01-19T16:29:02.305Z,7.28
2023-01-19T16:31:29.923Z,6.68
2023-01-19T16:33:57.185Z,9.20
2023-01-19T16:36:26.158Z,8.65
2023-01-19T16:38:53.873Z,7.35
2023-01-19T16:41:21.449Z,8.73
2023-01-19T16:43:53.108Z,7.40
2023-01-19T16:46:21.887Z,9.52
2023-01-19T16:48:49.185Z,10.65
2023-01-19T16:51:16.501Z,8.15
2023-01-19T16:53:43.795Z,7.30
2023-01-19T16:56:12.699Z,8.05
2023-01-19T16:58:40.038Z,7.85
2023-01-19T17:01:11.493Z,9.52
2023-01-19T17:03:38.800Z,8.00
2023-01-19T17:06:07.057Z,9.00
2023-01-19T17:08:35.026Z,7.97
2023-01-19T17:11:03.026Z,8.45
2023-01-19T17:13:31.203Z,8.70
2023-01-19T17:16:02.140Z,10.50
2023-01-19T17:18:31.840Z,8.63
2023-01-19T17:21:02.625Z,9.15
2023-01-19T17:23:30.316Z,8.43
2023-01-19T17:25:58.374Z,7.85
2023-01-19T17:28:26.476Z,9.88
2023-01-19T17:30:54.141Z,9.88
2023-01-19T17:33:22.493Z,10.60
2023-01-19T17:35:50.086Z,11.15
2023-01-19T17:38:17.718Z,7.82
2023-01-19T17:40:44.862Z,11.98
2023-01-19T17:43:11.990Z,9.40
2023-01-19T17:45:39.322Z,10.32
2023-01-19T17:48:06.670Z,8.55
2023-01-19T17:50:37.173Z,9.23
2023-01-19T17:53:04.323Z,7.90
2023-01-19T17:55:34.257Z,10.25
2023-01-19T17:58:01.949Z,7.38
2023-01-19T18:00:29.468Z,8.68
2023-01-19T18:02:56.830Z,8.63
2023-01-19T18:05:24.074Z,7.78
2023-01-19T18:07:51.285Z,7.88
2023-01-19T18:10:18.485Z,7.63
2023-01-19T18:12:45.724Z,6.63
2023-01-19T18:15:15.396Z,9.52
2023-01-19T18:17:43.923Z,9.45
2023-01-19T18:20:11.861Z,8.55
2023-01-19T18:22:39.281Z,7.43
2023-01-19T18:25:06.577Z,7.30
2023-01-19T18:27:33.743Z,6.88
2023-01-19T18:30:00.882Z,9.07
2023-01-19T18:32:28.080Z,6.88
2023-01-19T18:34:55.823Z,6.03
2023-01-19T18:37:23.031Z,5.80
2023-01-19T18:39:50.550Z,7.85
2023-01-19T18:42:17.802Z,5.63
2023-01-19T18:44:44.987Z,6.35
2023-01-19T18:47:12.133Z,5.88
2023-01-19T18:49:42.150Z,5.22
2023-01-19T18:52:09.391Z,5.95
2023-01-19T18:54:36.564Z,5.30
2023-01-19T18:57:03.760Z,5.40
2023-01-19T18:59:30.931Z,5.30
2023-01-19T19:02:01.364Z,5.65
2023-01-19T19:04:28.608Z,5.30
2023-01-19T19:06:55.752Z,5.28
2023-01-19T19:09:22.864Z,4.88
2023-01-19T19:11:50.034Z,5.20
2023-01-19T19:14:19.474Z,5.30
2023-01-19T19:16:46.670Z,8.18
2023-01-19T19:19:15.425Z,5.35
2023-01-19T19:21:43.333Z,6.95
2023-01-19T19:24:12.235Z,6.05
2023-01-19T19:26:39.407Z,7.75
2023-01-19T19:29:06.931Z,12.00
2023-01-19T19:31:34.171Z,6.88
2023-01-19T19:34:01.365Z,8.35
2023-01-19T19:36:29.137Z,12.73
2023-01-19T19:38:56.256Z,8.73
2023-01-19T19:41:24.809Z,8.75
2023-01-19T19:43:51.947Z,6.38
2023-01-19T19:46:20.198Z,7.28
2023-01-19T19:48:47.904Z,6.22
2023-01-19T19:51:19.089Z,6.63
2023-01-19T19:53:48.957Z,6.30
2023-01-19T19:56:21.032Z,8.63
2023-01-19T19:58:48.703Z,8.80
2023-01-19T20:01:20.875Z,7.82
2023-01-19T20:03:48.404Z,6.93
2023-01-19T20:06:18.079Z,6.63
2023-01-19T20:08:45.406Z,7.00
2023-01-19T20:11:14.308Z,6.63
2023-01-19T20:13:42.609Z,7.10
2023-01-19T20:16:11.184Z,6.82
2023-01-19T20:18:39.706Z,7.45
2023-01-19T20:21:15.870Z,6.80
2023-01-19T20:23:43.455Z,7.38
2023-01-19T20:26:12.010Z,8.02
2023-01-19T20:28:39.573Z,6.28
2023-01-19T20:31:14.533Z,7.65
2023-01-19T20:33:42.032Z,6.82
2023-01-19T20:36:10.460Z,7.15
2023-01-19T20:38:38.167Z,6.03
2023-01-19T20:41:08.484Z,6.35
2023-01-19T20:43:36.502Z,6.80
2023-01-19T20:46:04.143Z,9.00
2023-01-19T20:48:32.069Z,6.63
2023-01-19T20:51:03.180Z,8.70
2023-01-19T20:53:30.671Z,8.18
2023-01-19T20:55:58.080Z,10.93
2023-01-19T20:58:25.336Z,9.93
2023-01-19T21:00:52.880Z,8.48
2023-01-19T21:03:20.109Z,9.32
2023-01-19T21:05:51.051Z,10.15
2023-01-19T21:08:18.670Z,10.63
2023-01-19T21:10:46.198Z,7.70
2023-01-19T21:13:13.333Z,8.95
2023-01-19T21:15:40.545Z,10.00
2023-01-19T21:18:07.717Z,8.80
2023-01-19T21:20:49.936Z,8.27
2023-01-19T21:23:19.080Z,7.78
2023-01-19T21:25:50.911Z,9.27
2023-01-19T21:28:18.678Z,10.23
2023-01-19T21:30:46.292Z,12.43
2023-01-19T21:33:14.554Z,11.27
2023-01-19T21:35:50.143Z,9.73
2023-01-19T21:38:17.461Z,8.18
2023-01-19T21:40:44.655Z,12.38
2023-01-19T21:43:13.506Z,12.98
2023-01-19T21:45:43.082Z,12.93
2023-01-19T21:48:10.762Z,15.10
2023-01-19T21:50:38.268Z,11.82
2023-01-19T21:53:07.790Z,8.55
2023-01-19T21:55:34.950Z,8.38
2023-01-19T21:58:02.138Z,9.05
2023-01-19T22:00:32.371Z,8.60
2023-01-19T22:03:04.176Z,8.35
2023-01-19T22:05:36.800Z,11.90
2023-01-19T22:08:04.506Z,9.03
2023-01-19T22:10:31.668Z,9.27
2023-01-19T22:12:58.913Z,9.82
2023-01-19T22:15:26.028Z,11.05
2023-01-19T22:17:53.216Z,9.82
2023-01-19T22:20:20.671Z,9.07
2023-01-19T22:22:47.902Z,12.25
2023-01-19T22:25:15.429Z,12.27
2023-01-19T22:27:42.794Z,8.95
2023-01-19T22:30:10.177Z,14.55
2023-01-19T22:32:37.336Z,9.80
2023-01-19T22:35:04.579Z,10.23
2023-01-19T22:37:35.421Z,10.18
2023-01-19T22:40:03.179Z,8.60
2023-01-19T22:42:30.374Z,10.90
2023-01-19T22:44:57.488Z,8.27
2023-01-19T22:47:24.808Z,9.38
2023-01-19T22:49:51.943Z,12.18
2023-01-19T22:52:21.787Z,12.73
2023-01-19T22:54:48.866Z,9.85
2023-01-19T22:57:16.045Z,10.45
2023-01-19T22:59:43.685Z,10.02
2023-01-19T23:02:12.367Z,10.82
2023-01-19T23:04:39.604Z,9.15
2023-01-19T23:07:09.288Z,10.65
2023-01-19T23:09:38.065Z,8.77
2023-01-19T23:12:05.433Z,11.07
2023-01-19T23:14:32.699Z,10.38
2023-01-19T23:16:59.853Z,9.88
2023-01-19T23:19:26.978Z,10.68
2023-01-19T23:21:54.149Z,13.73
2023-01-19T23:24:21.353Z,14.43
2023-01-19T23:26:49.967Z,14.77
2023-01-19T23:29:18.018Z,14.40
2023-01-19T23:31:49.621Z,12.80
2023-01-19T23:34:16.818Z,15.25
2023-01-19T23:36:44.116Z,16.23
2023-01-19T23:39:18.848Z,14.85
2023-01-19T23:41:46.085Z,14.00
2023-01-19T23:44:13.315Z,17.27
2023-01-19T23:46:40.439Z,14.10
2023-01-19T23:49:07.636Z,13.18
2023-01-19T23:51:34.960Z,12.27
2023-01-19T23:54:02.213Z,11.30
2023-01-19T23:56:30.758Z,13.38
2023-01-19T23:58:59.377Z,14.55
